Latest Weather Observations for Gabo Island

IDV60801

Issued at 1:31 am EDT Monday 2 February 2015 (issued every 30 minutes, with the page automatically refreshed every 10 minutes)

About weather observations | Map of weather stations | Latest weather observations for VIC | Other Formats
Station Details ID: 084016 Name: GABO ISLAND LIGHTHOUSE Lat: -37.57 Lon: 149.92 Height: 15.2 m
Data from the previous 72 hours. | See also: Recent months at Gabo Island
Date/Time
EDT
Temp
°C
App
Temp
°C
Dew
Point
Rel
Hum
%
Delta-T
°C
Wind Press
QNH
hPa
Press
MSL
hPa
Rain
since 9 am
mm
Dir
 
Spd
km/h
Gust
km/h
Spd
kts
Gust
kts
02/01:30am 17.9 12.8 14.8 82 1.8 SSW 35 41 19 22 1014.3 - 4.8
02/01:00am 17.8 13.3 14.9 83 1.7 SSW 32 41 17 22 1014.4 - 4.8
02/12:30am 17.3 12.6 14.3 82 1.7 SSW 32 39 17 21 1014.6 - 4.8
02/12:00am 17.3 12.7 14.7 85 1.5 SSW 32 35 17 19 1014.6 1014.5 4.8
 
Date/Time
EDT
Temp
°C
App
Temp
°C
Dew
Point
Rel
Hum
%
Delta-T
°C
Wind Press
QNH
hPa
Press
MSL
hPa
Rain
since 9 am
mm
Dir
 
Spd
km/h
Gust
km/h
Spd
kts
Gust
kts
01/11:30pm 16.8 12.8 15.3 91 0.9 S 30 37 16 20 1014.7 - 4.8
01/11:00pm 17.5 13.0 14.9 85 1.5 SSW 32 43 17 23 1014.5 - 4.8
01/10:45pm 16.9 10.7 13.9 82 1.7 SSW 39 46 21 25 1014.5 - 4.8
01/10:30pm 16.5 11.0 14.8 90 1.0 S 37 46 20 25 1014.5 - 4.6
01/10:17pm 17.1 12.0 14.7 86 1.4 SSW 35 54 19 29 1014.4 - 4.4
01/10:00pm 16.9 11.4 14.6 86 1.3 S 37 43 20 23 1014.4 - 4.4
01/09:30pm 17.2 12.0 14.4 83 1.6 SSW 35 43 19 23 1014.1 - 4.4
01/09:00pm 18.1 12.6 13.7 75 2.5 SSW 35 41 19 22 1013.7 1013.6 4.0
01/08:30pm 18.1 12.6 13.5 74 2.6 SSW 35 43 19 23 1013.5 - 4.0
01/08:00pm 18.1 12.7 13.9 76 2.4 SSW 35 41 19 22 1013.4 - 4.0
01/07:30pm 18.5 12.4 14.0 75 2.6 SSW 39 46 21 25 1012.9 - 4.0
01/07:00pm 18.5 12.6 13.6 73 2.8 SSW 37 43 20 23 1012.6 - 4.0
01/06:30pm 18.8 12.4 13.3 70 3.1 SSW 39 48 21 26 1012.3 - 4.0
01/06:00pm 18.8 12.4 14.3 75 2.6 SSW 41 48 22 26 1012.0 1011.8 4.0
01/05:30pm 18.2 12.5 15.3 83 1.7 SSW 39 46 21 25 1011.8 - 4.0
01/05:00pm 17.2 10.4 14.8 86 1.4 SSW 44 59 24 32 1011.8 - 3.8
01/04:57pm 17.8 11.6 14.9 83 1.7 SSW 41 59 22 32 1011.7 - 3.8
01/04:30pm 18.3 13.2 14.7 79 2.1 SSW 35 44 19 24 1011.7 - 3.8
01/04:00pm 19.1 13.3 15.0 77 2.4 SSW 39 44 21 24 1011.6 - 3.8
01/03:30pm 19.2 13.1 15.3 78 2.3 SSW 41 46 22 25 1011.5 - 3.8
01/03:00pm 19.0 13.1 14.7 76 2.5 SSW 39 46 21 25 1011.3 1011.1 3.8
01/02:30pm 18.9 13.2 15.1 78 2.2 SSW 39 46 21 25 1011.2 - 3.8
01/02:00pm 18.5 13.8 15.8 84 1.6 SSW 35 41 19 22 1011.2 - 3.8
01/01:30pm 17.6 12.7 15.2 86 1.4 SSW 35 39 19 21 1011.3 - 3.8
01/01:00pm 17.9 14.2 16.0 89 1.1 SSW 30 35 16 19 1011.4 - 3.8
01/12:30pm 16.8 13.5 16.0 95 0.5 WSW 28 35 15 19 1011.3 - 3.4
01/12:00pm 16.7 13.3 15.8 94 0.5 WSW 28 35 15 19 1011.4 1011.3 2.8
01/11:30am 16.5 12.7 15.8 96 0.4 WSW 30 39 16 21 1011.4 - 2.2
01/11:00am 16.3 12.7 15.3 94 0.6 W 28 37 15 20 1011.1 - 1.2
01/10:30am 16.3 11.0 15.3 94 0.6 W 37 43 20 23 1011.0 - 0.4
01/10:00am 16.4 12.0 15.2 93 0.7 W 32 39 17 21 1010.7 - 0.4
01/09:30am 16.0 11.4 15.0 94 0.6 W 33 41 18 22 1010.6 - 0.2
01/09:00am 15.9 10.9 15.0 94 0.5 W 35 44 19 24 1010.5 1010.4 15.2
01/08:30am 15.6 10.1 14.6 94 0.6 W 37 43 20 23 1010.2 - 15.2
01/08:00am 15.6 11.0 15.1 97 0.3 W 33 43 18 23 1009.9 - 14.8
01/07:30am 15.9 11.2 14.9 94 0.6 WSW 33 43 18 23 1009.6 - 14.2
01/07:00am 15.8 11.1 14.8 94 0.6 WSW 33 41 18 22 1009.3 - 13.8
01/06:30am 15.6 11.0 14.6 94 0.6 WSW 32 41 17 22 1009.2 - 13.8
01/06:00am 15.6 10.4 14.6 94 0.6 WSW 35 43 19 23 1008.9 1008.8 13.8
01/05:30am 15.7 8.5 14.8 94 0.5 SW 46 59 25 32 1008.7 - 13.8
01/05:08am 15.6 9.7 14.7 94 0.5 WSW 39 57 21 31 1008.6 - 13.4
01/05:00am 15.4 9.4 14.5 94 0.5 WSW 39 46 21 25 1008.6 - 13.2
01/04:30am 15.1 7.6 14.9 99 0.1 WSW 48 63 26 34 1008.4 - 12.6
01/04:25am 15.1 8.2 14.6 97 0.3 WSW 44 63 24 34 1008.4 - 12.4
01/04:00am 16.5 11.3 15.6 94 0.5 WSW 37 50 20 27 1008.2 - 11.4
01/03:40am 15.7 11.4 15.4 98 0.2 WSW 32 39 17 21 1008.3 - 10.8
01/03:30am 16.3 11.1 15.6 96 0.4 SW 37 43 20 23 1008.3 - 10.2
01/03:00am 16.4 10.9 15.7 96 0.4 SW 39 48 21 26 1008.4 1008.3 9.6
01/02:30am 16.2 11.4 15.7 97 0.3 WSW 35 54 19 29 1008.4 - 8.4
01/02:00am 15.9 12.3 15.2 96 0.4 WSW 28 35 15 19 1008.7 - 7.2
01/01:55am 15.8 12.1 15.1 96 0.4 WSW 28 35 15 19 1008.7 - 7.0
01/01:30am 16.2 11.0 15.5 96 0.4 SW 37 46 20 25 1009.0 - 6.8
01/01:00am 16.4 10.5 15.7 96 0.4 SW 41 52 22 28 1009.3 - 6.0
01/12:53am 16.5 10.6 15.8 96 0.4 SW 41 50 22 27 1009.3 - 5.8
01/12:30am 16.0 12.0 15.1 94 0.5 W 30 41 16 22 1009.4 - 4.6
01/12:00am 16.0 11.9 15.0 94 0.6 W 30 35 16 19 1009.4 1009.3 3.0
 
Date/Time
EDT
Temp
°C
App
Temp
°C
Dew
Point
Rel
Hum
%
Delta-T
°C
Wind Press
QNH
hPa
Press
MSL
hPa
Rain
since 9 am
mm
Dir
 
Spd
km/h
Gust
km/h
Spd
kts
Gust
kts
31/11:30pm 16.0 11.4 15.1 94 0.5 W 33 43 18 23 1009.4 - 2.6
31/11:00pm 16.2 11.6 15.2 94 0.6 W 33 41 18 22 1009.7 - 2.6
31/10:30pm 16.6 10.6 15.4 93 0.7 WSW 41 54 22 29 1009.4 - 2.4
31/10:00pm 16.4 11.4 15.0 91 0.8 WSW 35 43 19 23 1009.5 - 1.6
31/09:30pm 17.1 11.6 14.7 86 1.4 WSW 37 46 20 25 1009.2 - 1.0
31/09:00pm 17.0 11.3 14.2 83 1.6 W 37 50 20 27 1008.7 1008.5 1.0
31/08:30pm 16.8 10.7 14.0 83 1.6 WSW 39 46 21 25 1008.4 - 1.0
31/08:00pm 16.8 10.7 14.2 85 1.5 WSW 39 48 21 26 1008.1 - 1.0
31/07:30pm 16.7 10.7 14.4 86 1.3 WSW 39 52 21 28 1007.9 - 1.0
31/07:00pm 16.8 10.0 14.4 86 1.4 WSW 43 54 23 29 1007.7 - 1.0
31/06:30pm 16.9 10.2 14.6 86 1.3 WSW 43 52 23 28 1007.4 - 1.0
31/06:00pm 16.9 10.4 15.0 88 1.1 WSW 43 54 23 29 1007.2 1007.1 1.0
31/05:30pm 16.9 9.3 14.8 87 1.2 WSW 48 61 26 33 1007.0 - 1.0
31/05:00pm 16.5 8.6 14.9 90 0.9 WSW 50 59 27 32 1007.0 - 1.0
31/04:30pm 16.6 9.7 15.6 94 0.6 WSW 46 59 25 32 1007.2 - 1.0
31/04:00pm 16.4 10.8 15.4 94 0.6 WSW 39 46 21 25 1007.1 - 0.6
31/03:30pm 16.8 8.4 15.6 93 0.7 WSW 54 67 29 36 1006.9 - 0.6
31/03:28pm 16.4 6.9 15.2 93 0.7 WSW 59 69 32 37 1006.8 - 0.6
31/03:00pm 16.9 10.9 15.4 91 0.9 WSW 41 54 22 29 1006.8 1006.7 0.4
31/02:30pm 16.6 10.3 15.6 94 0.6 WSW 43 54 23 29 1006.7 - 0.4
31/02:00pm 16.3 9.8 15.1 93 0.7 WSW 43 52 23 28 1006.7 - 0.2
31/01:30pm 15.9 9.6 14.7 93 0.7 W 41 52 22 28 1006.8 - 0.2
31/01:00pm 15.8 9.4 14.4 91 0.8 W 41 54 22 29 1006.8 - 0.2
31/12:30pm 15.7 9.4 14.5 93 0.7 W 41 52 22 28 1006.8 - 0.2
31/12:00pm 16.2 10.0 15.0 93 0.7 WSW 41 50 22 27 1007.0 1006.8 0.2
31/11:30am 16.0 9.8 14.8 93 0.7 W 41 52 22 28 1007.0 - 0.0
31/11:00am 16.2 9.4 14.3 88 1.1 W 43 52 23 28 1006.9 - 0.0
31/10:30am 15.4 8.4 13.8 90 0.9 W 43 52 23 28 1007.1 - 0.0
31/10:00am 15.3 8.4 13.9 91 0.8 W 43 56 23 30 1007.1 - 0.0
31/09:30am 14.6 8.0 13.7 94 0.5 W 41 54 22 29 1007.2 - 0.0
31/09:00am 14.7 8.0 13.4 92 0.7 W 41 54 22 29 1007.1 1007.0 16.4
31/08:30am 14.9 7.7 13.8 93 0.6 W 44 54 24 29 1007.0 - 16.2
31/08:00am 14.9 7.7 13.8 93 0.6 WSW 44 59 24 32 1006.6 - 15.8
31/07:30am 14.6 6.5 13.3 92 0.7 WSW 48 57 26 31 1006.5 - 15.6
31/07:00am 14.8 7.7 13.5 92 0.7 WSW 43 54 23 29 1006.1 - 15.2
31/06:30am 15.0 8.0 13.6 91 0.8 W 43 56 23 30 1005.8 - 15.2
31/06:00am 15.5 8.4 14.1 91 0.8 WSW 44 56 24 30 1005.6 1005.5 15.2
31/05:30am 15.8 8.8 14.2 90 0.9 WSW 44 57 24 31 1005.6 - 15.2
31/05:02am 15.9 8.1 14.0 88 1.1 WSW 48 69 26 37 1005.3 - 15.2
31/05:00am 16.3 9.0 14.6 90 1.0 WSW 46 59 25 32 1005.4 - 15.2
31/04:30am 17.1 8.7 14.5 85 1.5 SW 52 72 28 39 1005.3 - 15.0
31/04:26am 16.8 7.5 13.2 79 2.0 SW 54 72 29 39 1005.2 - 15.0
31/04:00am 15.4 7.7 15.4 100 0.0 WSW 50 67 27 36 1005.5 - 15.0
31/03:30am 16.3 8.2 14.4 88 1.1 WSW 50 67 27 36 1005.8 - 15.0
31/03:00am 17.1 6.5 13.0 77 2.3 SW 61 76 33 41 1005.8 1005.7 15.0
31/02:30am 16.9 6.4 13.4 80 2.0 SW 61 74 33 40 1006.0 - 15.0
31/02:27am 16.9 5.1 13.0 78 2.2 SW 67 76 36 41 1006.0 - 15.0
31/02:03am 16.2 8.5 14.3 88 1.1 WSW 48 67 26 36 1006.3 - 15.0
31/02:00am 16.2 7.7 14.3 88 1.1 WSW 52 67 28 36 1006.2 - 15.0
31/01:30am 16.9 6.2 13.9 82 1.7 SW 63 82 34 44 1006.3 - 15.0
31/01:25am 16.6 6.3 14.0 84 1.5 SW 61 82 33 44 1006.3 - 15.0
31/01:00am 16.8 6.2 14.2 85 1.5 SW 63 78 34 42 1006.6 - 15.0
31/12:30am 16.7 5.6 13.9 83 1.6 SW 65 76 35 41 1006.8 - 15.0
31/12:01am 16.7 6.5 14.4 86 1.3 SW 61 80 33 43 1007.0 - 15.0
31/12:00am 16.5 5.5 14.2 86 1.3 SW 65 80 35 43 1007.0 1006.9 15.0
 
Date/Time
EDT
Temp
°C
App
Temp
°C
Dew
Point
Rel
Hum
%
Delta-T
°C
Wind Press
QNH
hPa
Press
MSL
hPa
Rain
since 9 am
mm
Dir
 
Spd
km/h
Gust
km/h
Spd
kts
Gust
kts
30/11:34pm 16.0 6.0 14.8 93 0.7 SW 61 80 33 43 1007.1 - 15.0
30/11:30pm 16.1 5.7 14.9 93 0.7 SW 63 78 34 42 1007.2 - 15.0
30/11:08pm 16.2 6.3 15.2 94 0.6 SW 61 82 33 44 1007.3 - 14.8
30/11:00pm 16.1 5.8 15.2 94 0.5 SW 63 76 34 41 1007.3 - 14.8
30/10:30pm 16.2 5.9 15.2 94 0.6 SW 63 78 34 42 1007.4 - 14.4
30/10:00pm 16.1 5.8 15.2 94 0.5 SW 63 83 34 45 1007.8 - 13.8
30/09:32pm 16.6 7.4 15.9 96 0.4 SW 59 78 32 42 1007.8 - 12.6
30/09:30pm 16.5 6.8 15.6 94 0.5 SW 61 78 33 42 1007.8 - 12.4
30/09:00pm 16.0 5.4 15.3 96 0.4 SW 65 83 35 45 1007.4 1007.3 10.4
30/08:39pm 16.2 6.3 15.3 94 0.5 SW 61 80 33 43 1007.2 - 8.8
30/08:30pm 16.2 6.1 15.7 97 0.3 SW 63 78 34 42 1007.2 - 8.6
30/08:05pm 16.0 4.9 15.1 94 0.5 SW 67 85 36 46 1007.0 - 6.6
30/08:00pm 16.0 4.6 15.3 96 0.4 SW 69 83 37 45 1007.0 - 6.2
30/07:43pm 16.3 5.3 15.3 94 0.6 SW 67 85 36 46 1007.0 - 4.6
30/07:30pm 16.2 4.8 15.3 94 0.5 SW 69 82 37 44 1006.9 - 4.2
30/07:01pm 16.7 6.8 15.3 91 0.8 SW 61 80 33 43 1006.7 - 3.0
30/07:00pm 16.7 6.5 15.3 91 0.8 SW 63 80 34 43 1006.8 - 3.0
30/06:30pm 16.6 6.6 15.0 90 0.9 SW 61 72 33 39 1006.5 - 2.8
30/06:03pm 17.5 7.8 14.7 83 1.6 SSW 59 78 32 42 1006.4 - 2.4
30/06:00pm 17.5 7.0 14.6 83 1.7 SSW 63 76 34 41 1006.4 1006.3 2.4
30/05:30pm 17.5 6.7 14.7 83 1.6 SSW 65 83 35 45 1006.4 - 2.4
30/05:28pm 17.3 6.3 14.3 82 1.7 SSW 65 83 35 45 1006.3 - 2.4
30/05:00pm 17.3 7.2 14.5 83 1.6 SSW 61 72 33 39 1006.5 - 2.4
30/04:30pm 16.4 6.3 14.5 88 1.1 SSW 61 80 33 43 1006.6 - 2.2
30/04:23pm 17.2 8.1 15.3 88 1.1 SSW 57 76 31 41 1006.7 - 2.2
30/04:00pm 16.9 7.6 14.6 86 1.3 SSW 57 72 31 39 1006.7 - 2.2
30/03:33pm 17.4 7.2 14.3 82 1.8 SSW 61 82 33 44 1006.6 - 2.0
30/03:30pm 18.1 8.4 14.8 81 1.9 SSW 59 72 32 39 1006.7 - 2.0
30/03:18pm 17.5 8.4 14.7 83 1.6 SSW 56 74 30 40 1006.8 - 2.0
30/03:00pm 17.6 8.1 14.1 80 2.0 SSW 57 69 31 37 1006.7 1006.6 2.0
30/02:43pm 17.6 7.9 14.8 84 1.6 SSW 59 80 32 43 1006.8 - 2.0
30/02:30pm 17.4 7.1 14.1 81 1.9 SSW 61 76 33 41 1006.8 - 2.0
30/02:00pm 18.1 8.0 14.5 79 2.1 SSW 61 72 33 39 1006.9 - 2.0
30/01:30pm 18.0 8.1 14.2 78 2.2 SSW 59 74 32 40 1007.0 - 2.0
30/01:00pm 18.5 9.1 14.5 77 2.3 SSW 57 67 31 36 1007.0 - 2.0
30/12:30pm 18.0 8.8 14.4 79 2.1 SSW 56 67 30 36 1007.3 - 2.0
30/12:00pm 18.0 7.8 14.2 78 2.2 SSW 61 72 33 39 1007.5 1007.4 2.0
30/11:30am 17.8 8.6 14.5 81 1.9 SSW 56 69 30 37 1007.7 - 2.0
30/11:00am 17.5 7.7 14.4 82 1.8 SSW 59 74 32 40 1007.8 - 1.8
30/10:30am 16.6 7.0 15.0 90 0.9 SSW 59 72 32 39 1008.1 - 1.8
30/10:10am 17.0 7.8 14.6 86 1.4 SSW 56 85 30 46 1008.2 - 1.6
30/10:00am 16.9 7.4 14.3 85 1.5 SSW 57 69 31 37 1008.3 - 1.6
30/09:30am 16.5 7.3 14.9 90 0.9 SSW 57 69 31 37 1008.4 - 0.8
30/09:00am 16.8 6.6 14.4 86 1.4 SSW 61 74 33 40 1008.5 1008.3 19.8
30/08:30am 15.9 5.1 13.6 86 1.3 SSW 63 76 34 41 1008.5 - 19.8
30/08:00am 16.7 7.0 14.6 87 1.2 SSW 59 76 32 41 1008.5 - 19.8
30/07:59am 16.7 7.4 14.6 87 1.2 SSW 57 76 31 41 1008.5 - 19.8
30/07:30am 16.6 6.3 14.0 84 1.5 SSW 61 74 33 40 1008.4 - 19.2
30/07:00am 16.3 6.9 14.4 88 1.1 SW 57 76 31 41 1008.5 - 19.2
30/06:57am 15.8 6.4 14.4 91 0.8 SW 57 76 31 41 1008.5 - 19.2
30/06:30am 15.9 5.6 14.0 88 1.1 SW 61 76 33 41 1008.6 - 18.2
30/06:00am 15.6 4.7 13.5 87 1.2 SSW 63 76 34 41 1008.8 1008.7 18.0
30/05:30am 16.2 6.6 13.9 86 1.3 SW 57 70 31 38 1008.7 - 17.6
30/05:00am 15.9 5.6 13.0 83 1.6 SSW 59 72 32 39 1008.9 - 17.6
30/04:30am 15.8 5.9 14.2 90 0.9 SSW 59 78 32 42 1009.2 - 17.2
30/04:00am 15.6 5.5 13.6 88 1.1 SSW 59 83 32 45 1009.5 - 16.6
30/03:59am 16.7 6.7 13.9 83 1.6 SSW 59 82 32 44 1009.5 - 16.2
30/03:30am 16.3 5.8 12.3 77 2.2 SSW 59 70 32 38 1009.8 - 16.2
30/03:00am 16.3 6.8 13.5 83 1.6 SSW 56 70 30 38 1010.2 1010.1 16.2
30/02:30am 15.8 4.8 13.1 84 1.5 SSW 63 76 34 41 1010.4 - 16.2
30/02:00am 16.3 5.2 12.7 79 2.0 SSW 63 76 34 41 1010.6 - 16.2

Other Formats:

Comma delimited format used in spreadsheet applications
http://www.bom.gov.au/fwo/IDV60801/IDV60801.94933.axf

JavaScript Object Notation format (JSON) in row-major order
http://www.bom.gov.au/fwo/IDV60801/IDV60801.94933.json